Pagrindinis puslapis
METAR-TAF:

METAR-TAF

Oro uostai :

Fodža, Italija

platuma: 41-25-58N, ilguma: 015-32-06E, Aukštis: 81 m

Dabartinis oras

Ataskaita buvo paskelbta 7 valandos ir 49 minutes, ne 15:50 UTC
Vėjas 10 kt iš Šiaurės/Šiaurės Vakarų
Temperatūra 18°C
Drėgmė 34%
Slėgis 1025 hPa
Matomumas 10 km arba daugiau
nėra debesų žemiau 1500 m ir nėra kamuolinių lietaus debesų

METAR: LIBF 071550Z 34010KT CAVOK 18/02 Q1025

Laikas: 01:39 (23:39 UTC)


TAF: trūkstamas

Orai ataskaitas ir orų prognozės (METAR, TAF).

turimą stotys yra geltonos ir raudonos taškus žemėlapyje.

Perkelti pele per norėdami pamatyti stoties vardą.

Tada spustelėkite, norėdami matyti oro stebėjimo ir prognozės.

Norėdami pakeisti žemėlapį: spustelėkite ant žalios mygtukų su juodo kryžiaus žemyn,; žalią mygtuką su brūkšneliu, jei norite nutolinti; arba žalių rodyklių gretimoms žemėlapius.


METAR-TAF: